Airfield :
LOGIN :

Register | Disclaimer

   EN    FR    IT 

 










Legend :    VFR   Marginal VFR   IFR   Intensive IFR   Very Intensive IFR
Visi :
Ceiling :
>= 8 km
>= 3000ft
5 to 8 km
1000 to 3000 ft
1500m to 5 km
500 to 1000 ft
800 to 1500m
200 to 500 ft
< 800m
< 200 ft
Symbols :   Thunderstorms  Fog  Heavy snow  Heavy precipitations  Wind > 20 kt
SIGMETs :     Misc.  Thunderstorms  Icing  Turbulence  Mountain Waves  Volcanic Ashes







- Airport Elevation : 55 ft
- IATA code : DSA
- Download approach charts


EGCN - Robin Hood Doncaster Sheffield

CURRENT METAR :
  • 241020Z 23007KT 9999 FEW029 SCT035 13/07 Q1013

EXPIRED METARs :
  • 240950Z 22006KT 9999 SCT034 13/07 Q1013
  • 240920Z 26008KT 9999 FEW036 12/07 Q1013
  • 240850Z 25011KT 9999 FEW033 SCT039 12/06 Q1013
  • 240820Z 25014KT 9999 BKN032 12/06 Q1013
  • 240750Z 26009KT 9999 BKN031 12/06 Q1013

TAF TAF EGCN
Valid from the 24 at 06:00 until the 25 at 06:00 UTC


240456Z 2406/2506 22008KT 9999 FEW030
TEMPO 2412/2424 6000 RA BKN010
PROB30
TEMPO 2503/2506 7000 SHRA BKN012
No reported NOTAMs for that airfield.



MET'MAP, your aeronautical weather chart ! - Copyright ORBIFLY December 2007 - Disclaimer

ORBIFLY MET'MAP TEAM :

Programming & Development : Alexandra Zaïnal
Concept & Development : Baudouin d'Aumeries
Co-Development & Prog : Marc-Olivier Méhu
Technical & hardware support : Manuel Goepfert

Contact : metmap@orbifly.com




SOURCES & CREDITS :

   NOAA